createdAt,value
2022-08-14T00:02:01.593Z,21.70
2022-08-14T00:04:35.449Z,21.70
2022-08-14T00:07:13.940Z,21.70
2022-08-14T00:10:01.374Z,21.60
2022-08-14T00:12:48.111Z,21.60
2022-08-14T00:15:21.938Z,21.60
2022-08-14T00:17:53.447Z,21.50
2022-08-14T00:20:31.027Z,21.50
2022-08-14T00:23:16.491Z,21.40
2022-08-14T00:25:53.969Z,21.40
2022-08-14T00:28:35.177Z,21.40
2022-08-14T00:31:05.163Z,21.40
2022-08-14T00:33:50.838Z,21.30
2022-08-14T00:36:35.191Z,21.30
2022-08-14T00:39:13.988Z,21.30
2022-08-14T00:41:42.236Z,21.30
2022-08-14T00:44:10.829Z,21.20
2022-08-14T00:46:39.268Z,21.20
2022-08-14T00:49:08.139Z,21.20
2022-08-14T00:51:41.321Z,21.10
2022-08-14T00:54:16.747Z,21.10
2022-08-14T00:56:55.435Z,21.10
2022-08-14T00:59:25.064Z,21.10
2022-08-14T01:01:55.512Z,21.00
2022-08-14T01:04:52.411Z,21.00
2022-08-14T01:07:20.775Z,21.00
2022-08-14T01:09:50.844Z,20.90
2022-08-14T01:12:26.877Z,20.90
2022-08-14T01:14:58.425Z,20.80
2022-08-14T01:17:50.709Z,20.80
2022-08-14T01:20:39.949Z,20.80
2022-08-14T01:23:15.608Z,20.70
2022-08-14T01:25:44.326Z,20.70
2022-08-14T01:28:46.496Z,20.70
2022-08-14T01:31:05.866Z,20.70
2022-08-14T01:33:44.692Z,20.60
2022-08-14T01:36:23.688Z,20.60
2022-08-14T01:38:56.725Z,20.50
2022-08-14T01:41:29.998Z,20.50
2022-08-14T01:44:02.303Z,20.50
2022-08-14T01:46:33.558Z,20.40
2022-08-14T01:49:07.774Z,20.30
2022-08-14T01:51:36.777Z,20.20
2022-08-14T01:54:09.405Z,20.20
2022-08-14T01:56:39.757Z,20.20
2022-08-14T01:59:10.150Z,20.20
2022-08-14T02:01:58.662Z,20.20
2022-08-14T02:04:54.822Z,20.20
2022-08-14T02:07:34.493Z,20.10
2022-08-14T02:10:13.254Z,20.10
2022-08-14T02:12:44.557Z,20.10
2022-08-14T02:15:18.725Z,20.10
2022-08-14T02:17:46.739Z,20.10
2022-08-14T02:20:20.065Z,20.00
2022-08-14T02:22:55.598Z,20.00
2022-08-14T02:25:25.090Z,19.90
2022-08-14T02:28:22.670Z,19.90
2022-08-14T02:30:46.819Z,19.90
2022-08-14T02:33:14.773Z,19.90
2022-08-14T02:35:44.341Z,19.90
2022-08-14T02:38:30.204Z,19.80
2022-08-14T02:41:09.045Z,19.80
2022-08-14T02:43:48.273Z,19.70
2022-08-14T02:46:20.703Z,19.70
2022-08-14T02:49:02.843Z,19.70
2022-08-14T02:51:33.407Z,19.70
2022-08-14T02:54:01.730Z,19.60
2022-08-14T02:57:15.833Z,19.60
2022-08-14T02:59:21.076Z,19.60
2022-08-14T03:01:54.875Z,19.60
2022-08-14T03:04:23.469Z,19.60
2022-08-14T03:06:57.877Z,19.60
2022-08-14T03:10:25.040Z,19.50
2022-08-14T03:12:31.720Z,19.40
2022-08-14T03:15:03.786Z,19.40
2022-08-14T03:17:56.078Z,19.30
2022-08-14T03:20:22.494Z,19.30
2022-08-14T03:22:51.507Z,19.30
2022-08-14T03:25:21.761Z,19.30
2022-08-14T03:27:58.530Z,19.20
2022-08-14T03:30:39.872Z,19.30
2022-08-14T03:33:11.341Z,19.20
2022-08-14T03:36:00.433Z,19.20
2022-08-14T03:39:12.371Z,19.20
2022-08-14T03:41:23.102Z,19.20
2022-08-14T03:44:01.110Z,19.20
2022-08-14T03:46:38.745Z,19.20
2022-08-14T03:49:28.277Z,19.20
2022-08-14T03:51:57.719Z,19.20
2022-08-14T03:54:26.392Z,19.20
2022-08-14T03:56:54.840Z,19.20
2022-08-14T03:59:24.267Z,19.20
2022-08-14T04:02:01.887Z,19.10
2022-08-14T04:04:30.678Z,19.10
2022-08-14T04:07:00.794Z,19.10
2022-08-14T04:09:29.779Z,19.00
2022-08-14T04:11:59.884Z,19.10
2022-08-14T04:14:29.959Z,19.00
2022-08-14T04:16:57.920Z,19.00
2022-08-14T04:19:28.343Z,18.90
2022-08-14T04:22:03.488Z,18.90
2022-08-14T04:24:37.870Z,18.90
2022-08-14T04:27:09.424Z,18.90
2022-08-14T04:29:39.925Z,18.90
2022-08-14T04:33:01.231Z,18.90
2022-08-14T04:35:00.414Z,18.90
2022-08-14T04:38:00.949Z,18.90
2022-08-14T04:40:55.513Z,18.90
2022-08-14T04:43:40.054Z,18.90
2022-08-14T04:46:55.965Z,18.90
2022-08-14T04:49:00.491Z,18.90
2022-08-14T04:51:30.126Z,18.80
2022-08-14T04:54:15.010Z,18.90
2022-08-14T04:56:45.453Z,18.90
2022-08-14T04:59:13.553Z,18.90
2022-08-14T05:01:47.889Z,18.90
2022-08-14T05:04:19.947Z,18.90
2022-08-14T05:06:49.773Z,18.90
2022-08-14T05:09:21.741Z,18.90
2022-08-14T05:11:51.444Z,18.80
2022-08-14T05:14:45.661Z,18.80
2022-08-14T05:17:12.319Z,18.80
2022-08-14T05:19:44.957Z,18.90
2022-08-14T05:22:28.146Z,18.80
2022-08-14T05:24:56.088Z,18.80
2022-08-14T05:27:24.225Z,18.80
2022-08-14T05:29:55.415Z,18.80
2022-08-14T05:32:27.264Z,18.80
2022-08-14T05:34:58.097Z,18.90
2022-08-14T05:37:28.061Z,18.90
2022-08-14T05:39:56.477Z,19.00
2022-08-14T05:42:29.079Z,19.00
2022-08-14T05:44:59.717Z,19.00
2022-08-14T05:47:39.362Z,19.00
2022-08-14T05:50:17.535Z,19.00
2022-08-14T05:52:50.174Z,19.10
2022-08-14T05:55:22.174Z,19.20
2022-08-14T05:57:53.725Z,19.30
2022-08-14T06:00:28.325Z,19.30
2022-08-14T06:03:00.101Z,19.40
2022-08-14T06:05:29.670Z,19.40
2022-08-14T06:07:58.988Z,19.40
2022-08-14T06:10:28.740Z,19.40
2022-08-14T06:12:58.377Z,19.50
2022-08-14T06:15:30.019Z,19.50
2022-08-14T06:18:01.716Z,19.60
2022-08-14T06:20:31.034Z,19.70
2022-08-14T06:23:00.014Z,19.80
2022-08-14T06:25:28.994Z,19.90
2022-08-14T06:27:58.052Z,19.90
2022-08-14T06:30:45.882Z,20.00
2022-08-14T06:33:18.393Z,20.10
2022-08-14T06:35:47.237Z,20.20
2022-08-14T06:38:17.881Z,20.20
2022-08-14T06:40:47.096Z,20.30
2022-08-14T06:43:16.196Z,20.40
2022-08-14T06:45:50.333Z,20.40
2022-08-14T06:48:25.282Z,20.50
2022-08-14T06:50:54.477Z,20.60
2022-08-14T06:53:27.848Z,20.70
2022-08-14T06:56:00.675Z,20.80
2022-08-14T06:58:32.091Z,20.90
2022-08-14T07:01:25.118Z,21.00
2022-08-14T07:04:26.131Z,21.10
2022-08-14T07:06:58.439Z,21.10
2022-08-14T07:09:27.955Z,21.30
2022-08-14T07:11:56.466Z,21.30
2022-08-14T07:14:25.897Z,21.40
2022-08-14T07:16:54.444Z,21.50
2022-08-14T07:19:24.247Z,21.60
2022-08-14T07:21:52.889Z,21.60
2022-08-14T07:24:26.195Z,21.70
2022-08-14T07:26:59.318Z,21.70
2022-08-14T07:29:28.728Z,21.80
2022-08-14T07:31:57.546Z,21.90
2022-08-14T07:34:40.496Z,22.00
2022-08-14T07:37:09.882Z,22.20
2022-08-14T07:39:38.636Z,22.30
2022-08-14T07:42:08.037Z,22.50
2022-08-14T07:44:46.217Z,22.60
2022-08-14T07:47:16.881Z,22.70
2022-08-14T07:49:59.965Z,22.90
2022-08-14T07:52:30.887Z,23.00
2022-08-14T07:55:02.173Z,23.10
2022-08-14T07:57:30.182Z,23.20
2022-08-14T07:59:58.114Z,23.40
2022-08-14T08:02:32.589Z,23.50
2022-08-14T08:05:02.732Z,23.60
2022-08-14T08:07:32.408Z,23.70
2022-08-14T08:10:31.097Z,23.80
2022-08-14T08:13:16.761Z,23.90
2022-08-14T08:15:46.389Z,24.10
2022-08-14T08:18:20.307Z,24.10
2022-08-14T08:20:59.278Z,24.20
2022-08-14T08:23:34.367Z,24.30
2022-08-14T08:26:09.289Z,24.40
2022-08-14T08:28:37.433Z,24.50
2022-08-14T08:31:08.182Z,24.60
2022-08-14T08:33:38.873Z,24.60
2022-08-14T08:36:12.988Z,24.80
2022-08-14T08:39:18.146Z,24.90
2022-08-14T08:41:45.102Z,24.90
2022-08-14T08:44:30.076Z,25.00
2022-08-14T08:47:05.539Z,25.10
2022-08-14T08:49:48.236Z,25.20
2022-08-14T08:52:25.337Z,25.20
2022-08-14T08:54:58.833Z,25.30
2022-08-14T08:57:26.901Z,25.40
2022-08-14T08:59:58.737Z,25.50
2022-08-14T09:02:27.657Z,25.50
2022-08-14T09:05:03.309Z,25.70
2022-08-14T09:07:32.725Z,25.70
2022-08-14T09:10:01.600Z,25.80
2022-08-14T09:12:32.656Z,25.90
2022-08-14T09:15:02.813Z,26.00
2022-08-14T09:17:33.220Z,26.10
2022-08-14T09:20:04.302Z,26.10
2022-08-14T09:22:42.494Z,26.10
2022-08-14T09:25:17.178Z,26.20
2022-08-14T09:27:47.963Z,26.30
2022-08-14T09:30:31.563Z,26.40
2022-08-14T09:33:56.512Z,26.50
2022-08-14T09:36:50.160Z,26.60
2022-08-14T09:39:34.092Z,26.80
2022-08-14T09:42:33.169Z,26.80
2022-08-14T09:45:15.072Z,26.90
2022-08-14T09:47:46.521Z,27.00
2022-08-14T09:50:20.216Z,27.00
2022-08-14T09:52:56.753Z,27.00
2022-08-14T09:55:30.460Z,27.10
2022-08-14T09:58:15.113Z,27.20
2022-08-14T10:00:53.882Z,27.20
2022-08-14T10:03:33.818Z,27.30
2022-08-14T10:06:07.451Z,27.40
2022-08-14T10:08:51.237Z,27.50
2022-08-14T10:11:23.977Z,27.60
2022-08-14T10:13:55.756Z,27.60
2022-08-14T10:16:27.403Z,27.60
2022-08-14T10:19:07.574Z,27.70
2022-08-14T10:21:58.189Z,27.70
2022-08-14T10:24:36.461Z,27.80
2022-08-14T10:27:18.277Z,27.90
2022-08-14T10:29:49.898Z,27.90
2022-08-14T10:32:28.778Z,28.00
2022-08-14T10:35:13.749Z,28.00
2022-08-14T10:37:48.146Z,28.10
2022-08-14T10:40:38.011Z,28.10
2022-08-14T10:43:23.061Z,28.10
2022-08-14T10:45:59.818Z,28.10
2022-08-14T10:48:57.678Z,28.20
2022-08-14T10:51:27.234Z,28.30
2022-08-14T10:54:01.275Z,28.40
2022-08-14T10:56:44.630Z,28.50
2022-08-14T10:59:14.061Z,28.50
2022-08-14T11:01:42.104Z,28.60
2022-08-14T11:04:30.139Z,28.70
2022-08-14T11:06:59.721Z,28.70
2022-08-14T11:09:31.861Z,28.80
2022-08-14T11:12:34.133Z,28.80
2022-08-14T11:15:01.796Z,28.90
2022-08-14T11:17:31.791Z,29.00
2022-08-14T11:20:02.534Z,29.00
2022-08-14T11:22:56.651Z,29.10
2022-08-14T11:25:21.388Z,29.20
2022-08-14T11:27:50.657Z,29.30
2022-08-14T11:30:51.549Z,29.40
2022-08-14T11:33:10.376Z,29.40
2022-08-14T11:35:47.507Z,29.60
2022-08-14T11:38:18.084Z,29.70
2022-08-14T11:40:47.541Z,29.80
2022-08-14T11:43:16.606Z,29.90
2022-08-14T11:45:50.327Z,30.00
2022-08-14T11:49:01.789Z,30.10
2022-08-14T11:51:14.779Z,30.20
2022-08-14T11:53:51.350Z,30.40
2022-08-14T11:56:20.082Z,30.40
2022-08-14T11:58:55.153Z,30.50
2022-08-14T12:01:31.137Z,30.60
2022-08-14T12:04:32.432Z,30.80
2022-08-14T12:06:58.968Z,30.80
2022-08-14T12:09:31.849Z,30.90
2022-08-14T12:12:00.090Z,31.00
2022-08-14T12:14:35.697Z,31.00
2022-08-14T12:17:13.090Z,31.00
2022-08-14T12:19:51.049Z,31.00
2022-08-14T12:22:34.235Z,31.00
2022-08-14T12:25:08.526Z,30.90
2022-08-14T12:27:46.795Z,30.90
2022-08-14T12:30:39.747Z,30.90
2022-08-14T12:33:25.759Z,30.90
2022-08-14T12:36:04.608Z,30.90
2022-08-14T12:38:36.458Z,30.90
2022-08-14T12:41:10.215Z,30.80
2022-08-14T12:43:46.742Z,30.80
2022-08-14T12:46:28.649Z,30.70
2022-08-14T12:49:02.430Z,30.70
2022-08-14T12:51:31.398Z,30.60
2022-08-14T12:54:00.579Z,30.60
2022-08-14T12:56:33.502Z,30.60
2022-08-14T12:59:04.551Z,30.60
2022-08-14T13:02:00.040Z,30.60
2022-08-14T13:04:24.271Z,30.60
2022-08-14T13:06:52.835Z,30.60
2022-08-14T13:09:23.125Z,30.50
2022-08-14T13:11:59.066Z,30.50
2022-08-14T13:14:48.783Z,30.50
2022-08-14T13:17:18.116Z,30.50
2022-08-14T13:19:47.839Z,30.40
2022-08-14T13:22:32.109Z,30.30
2022-08-14T13:25:05.263Z,30.30
2022-08-14T13:27:39.252Z,30.30
2022-08-14T13:30:10.824Z,30.30
2022-08-14T13:32:49.432Z,30.30
2022-08-14T13:35:20.298Z,30.30
2022-08-14T13:37:52.459Z,30.30
2022-08-14T13:40:26.412Z,30.30
2022-08-14T13:42:57.086Z,30.30
2022-08-14T13:45:33.895Z,30.20
2022-08-14T13:48:19.203Z,30.20
2022-08-14T13:51:08.036Z,30.20
2022-08-14T13:54:06.955Z,30.20
2022-08-14T13:56:38.635Z,30.20
2022-08-14T13:59:07.480Z,30.20
2022-08-14T14:01:43.568Z,30.20
2022-08-14T14:04:19.073Z,30.20
2022-08-14T14:06:51.196Z,30.20
2022-08-14T14:09:32.598Z,30.20
2022-08-14T14:12:37.769Z,30.20
2022-08-14T14:15:04.858Z,30.20
2022-08-14T14:17:33.947Z,30.10
2022-08-14T14:20:03.020Z,30.10
2022-08-14T14:23:01.314Z,30.00
2022-08-14T14:25:22.729Z,30.00
2022-08-14T14:27:53.488Z,30.00
2022-08-14T14:30:52.783Z,30.00
2022-08-14T14:33:42.522Z,29.90
2022-08-14T14:36:05.006Z,30.00
2022-08-14T14:38:35.249Z,30.00
2022-08-14T14:41:05.813Z,30.00
2022-08-14T14:43:37.319Z,30.00
2022-08-14T14:46:09.595Z,30.00
2022-08-14T14:48:44.302Z,30.00
2022-08-14T14:51:21.906Z,30.00
2022-08-14T14:53:52.488Z,29.90
2022-08-14T14:56:50.513Z,30.00
2022-08-14T14:59:09.839Z,30.00
2022-08-14T15:01:39.485Z,30.00
2022-08-14T15:04:20.227Z,30.00
2022-08-14T15:06:49.936Z,30.00
2022-08-14T15:09:20.391Z,30.10
2022-08-14T15:11:50.965Z,30.00
2022-08-14T15:14:56.259Z,30.00
2022-08-14T15:17:08.582Z,30.00
2022-08-14T15:19:38.673Z,30.00
2022-08-14T15:22:10.672Z,30.00
2022-08-14T15:24:40.361Z,30.00
2022-08-14T15:27:09.216Z,30.00
2022-08-14T15:29:43.159Z,30.00
2022-08-14T15:32:11.477Z,30.00
2022-08-14T15:34:45.269Z,30.00
2022-08-14T15:37:19.015Z,30.00
2022-08-14T15:39:49.165Z,29.90
2022-08-14T15:42:18.115Z,29.90
2022-08-14T15:44:58.271Z,29.90
2022-08-14T15:47:31.103Z,29.90
2022-08-14T15:50:00.612Z,29.90
2022-08-14T15:52:32.789Z,29.80
2022-08-14T15:55:06.908Z,29.70
2022-08-14T15:57:36.005Z,29.70
2022-08-14T16:00:40.329Z,29.70
2022-08-14T16:03:14.315Z,29.70
2022-08-14T16:05:44.334Z,29.70
2022-08-14T16:08:26.657Z,29.70
2022-08-14T16:11:00.549Z,29.60
2022-08-14T16:13:41.261Z,29.70
2022-08-14T16:16:49.604Z,29.60
2022-08-14T16:19:10.191Z,29.60
2022-08-14T16:21:40.732Z,29.60
2022-08-14T16:24:33.048Z,29.60
2022-08-14T16:27:03.427Z,29.50
2022-08-14T16:29:34.879Z,29.50
2022-08-14T16:32:33.240Z,29.40
2022-08-14T16:34:54.859Z,29.40
2022-08-14T16:40:13.811Z,29.40
2022-08-14T16:40:25.497Z,29.40
2022-08-14T16:43:03.935Z,29.40
2022-08-14T16:45:33.838Z,29.40
2022-08-14T16:48:54.897Z,29.40
2022-08-14T16:51:06.894Z,29.30
2022-08-14T16:53:36.851Z,29.30
2022-08-14T16:56:22.951Z,29.30
2022-08-14T16:59:12.074Z,29.20
2022-08-14T17:01:42.695Z,29.30
2022-08-14T17:04:15.000Z,29.20
2022-08-14T17:06:54.518Z,29.20
2022-08-14T17:09:35.396Z,29.20
2022-08-14T17:12:09.351Z,29.20
2022-08-14T17:15:09.951Z,29.10
2022-08-14T17:17:49.852Z,29.10
2022-08-14T17:20:39.654Z,29.10
2022-08-14T17:23:14.670Z,29.10
2022-08-14T17:25:49.341Z,29.00
2022-08-14T17:28:51.917Z,29.00
2022-08-14T17:31:10.051Z,29.00
2022-08-14T17:33:44.611Z,28.90
2022-08-14T17:36:22.390Z,28.80
2022-08-14T17:39:00.470Z,28.80
2022-08-14T17:41:43.722Z,28.70
2022-08-14T17:44:19.817Z,28.70
2022-08-14T17:46:55.231Z,28.60
2022-08-14T17:49:32.231Z,28.50
2022-08-14T17:52:07.602Z,28.50
2022-08-14T17:54:52.932Z,28.40
2022-08-14T17:57:28.378Z,28.30
2022-08-14T17:59:58.949Z,28.20
2022-08-14T18:02:31.554Z,28.20
2022-08-14T18:05:02.720Z,28.20
2022-08-14T18:08:00.292Z,28.10
2022-08-14T18:10:52.322Z,28.10
2022-08-14T18:13:10.762Z,28.00
2022-08-14T18:15:45.010Z,28.00
2022-08-14T18:18:21.304Z,27.90
2022-08-14T18:21:41.536Z,27.80
2022-08-14T18:23:42.716Z,27.80
2022-08-14T18:26:36.889Z,27.80
2022-08-14T18:29:01.258Z,27.70
2022-08-14T18:31:43.840Z,27.60
2022-08-14T18:34:31.511Z,27.60
2022-08-14T18:37:16.747Z,27.50
2022-08-14T18:40:01.143Z,27.40
2022-08-14T18:42:47.563Z,27.40
2022-08-14T18:45:18.924Z,27.30
2022-08-14T18:48:06.630Z,27.30
2022-08-14T18:50:52.317Z,27.20
2022-08-14T18:53:24.765Z,27.20
2022-08-14T18:55:56.281Z,27.10
2022-08-14T18:58:31.545Z,27.00
2022-08-14T19:01:04.691Z,26.90
2022-08-14T19:03:57.454Z,26.90
2022-08-14T19:06:55.814Z,26.80
2022-08-14T19:09:53.531Z,26.70
2022-08-14T19:13:00.303Z,26.70
2022-08-14T19:15:30.226Z,26.60
2022-08-14T19:18:13.814Z,26.60
2022-08-14T19:20:52.843Z,26.60
2022-08-14T19:23:42.132Z,26.50
2022-08-14T19:26:35.252Z,26.50
2022-08-14T19:29:23.423Z,26.50
2022-08-14T19:31:55.783Z,26.50
2022-08-14T19:34:52.416Z,26.40
2022-08-14T19:37:45.940Z,26.30
2022-08-14T19:40:28.834Z,26.30
2022-08-14T19:42:58.283Z,26.30
2022-08-14T19:45:26.934Z,26.20
2022-08-14T19:47:57.934Z,26.20
2022-08-14T19:50:38.284Z,26.20
2022-08-14T19:53:12.067Z,26.10
2022-08-14T19:55:59.226Z,26.10
2022-08-14T19:58:54.510Z,26.10
2022-08-14T20:01:27.251Z,26.10
2022-08-14T20:04:08.500Z,26.10
2022-08-14T20:06:57.481Z,26.10
2022-08-14T20:11:07.842Z,26.10
2022-08-14T20:12:28.967Z,26.10
2022-08-14T20:15:06.765Z,26.00
2022-08-14T20:17:40.566Z,26.00
2022-08-14T20:20:22.382Z,26.00
2022-08-14T20:23:02.018Z,26.00
2022-08-14T20:25:37.820Z,26.00
2022-08-14T20:28:35.312Z,26.00
2022-08-14T20:31:14.674Z,26.00
2022-08-14T20:34:24.785Z,26.00
2022-08-14T20:37:09.808Z,26.00
2022-08-14T20:39:43.498Z,26.00
2022-08-14T20:42:32.584Z,26.00
2022-08-14T20:45:19.836Z,26.00
2022-08-14T20:47:58.440Z,26.00
2022-08-14T20:50:30.548Z,26.00
2022-08-14T20:53:00.095Z,26.00
2022-08-14T20:55:30.750Z,26.10
2022-08-14T20:58:02.528Z,26.10
2022-08-14T21:00:52.106Z,26.10
2022-08-14T21:03:29.277Z,26.10
2022-08-14T21:05:59.505Z,26.10
2022-08-14T21:08:31.593Z,26.00
2022-08-14T21:11:05.600Z,26.10
2022-08-14T21:14:25.056Z,26.00
2022-08-14T21:16:33.750Z,26.00
2022-08-14T21:19:06.304Z,26.00
2022-08-14T21:21:41.852Z,26.00
2022-08-14T21:24:38.457Z,26.00
2022-08-14T21:27:09.386Z,25.90
2022-08-14T21:29:54.075Z,25.90
2022-08-14T21:32:47.156Z,25.90
2022-08-14T21:35:22.855Z,25.90
2022-08-14T21:37:52.591Z,25.90
2022-08-14T21:40:40.369Z,25.90
2022-08-14T21:43:17.622Z,25.80
2022-08-14T21:45:51.605Z,25.80
2022-08-14T21:48:22.356Z,25.80
2022-08-14T21:51:01.124Z,25.80
2022-08-14T21:53:58.852Z,25.80
2022-08-14T21:56:38.381Z,25.80
2022-08-14T21:59:10.881Z,25.70
2022-08-14T22:02:01.082Z,25.70
2022-08-14T22:04:33.347Z,25.60
2022-08-14T22:07:05.437Z,25.60
2022-08-14T22:09:36.326Z,25.50
2022-08-14T22:12:07.278Z,25.50
2022-08-14T22:14:43.204Z,25.50
2022-08-14T22:17:16.424Z,25.50
2022-08-14T22:19:55.009Z,25.50
2022-08-14T22:22:26.608Z,25.50
2022-08-14T22:25:00.405Z,25.40
2022-08-14T22:27:32.174Z,25.40
2022-08-14T22:30:02.192Z,25.40
2022-08-14T22:32:55.981Z,25.40
2022-08-14T22:35:19.390Z,25.40
2022-08-14T22:38:34.993Z,25.40
2022-08-14T22:41:08.619Z,25.30
2022-08-14T22:43:34.990Z,25.40
2022-08-14T22:46:03.434Z,25.40
2022-08-14T22:48:43.110Z,25.30
2022-08-14T22:51:13.604Z,25.30
2022-08-14T22:53:43.899Z,25.30
2022-08-14T22:56:20.132Z,25.20
2022-08-14T22:58:54.022Z,25.30
2022-08-14T23:01:57.049Z,25.20
2022-08-14T23:04:34.425Z,25.20
2022-08-14T23:07:22.275Z,25.20
2022-08-14T23:09:56.445Z,25.20
2022-08-14T23:12:29.281Z,25.20
2022-08-14T23:14:58.862Z,25.20
2022-08-14T23:17:27.526Z,25.20
2022-08-14T23:20:18.774Z,25.10
2022-08-14T23:22:51.510Z,25.10
2022-08-14T23:25:57.683Z,25.10
2022-08-14T23:28:33.940Z,25.10
2022-08-14T23:31:02.182Z,25.10
2022-08-14T23:33:34.741Z,25.10
2022-08-14T23:36:04.606Z,25.10
2022-08-14T23:38:52.787Z,25.10
2022-08-14T23:41:23.018Z,25.00
2022-08-14T23:43:54.483Z,25.00
2022-08-14T23:46:29.295Z,24.90
2022-08-14T23:49:03.978Z,24.90
2022-08-14T23:51:36.433Z,24.90
2022-08-14T23:54:48.646Z,24.90
2022-08-14T23:57:02.770Z,24.90
2022-08-14T23:59:32.535Z,24.90
